sensor_id;sensor_type;location;lat;lon;timestamp;P1;durP1;ratioP1;P2;durP2;ratioP2
14377;SDS011;7272;53.668;9.578;2023-04-22T00:02:14;4.80;;;3.70;;
14377;SDS011;7272;53.668;9.578;2023-04-22T00:05:16;4.90;;;4.50;;
14377;SDS011;7272;53.668;9.578;2023-04-22T00:08:19;4.57;;;4.10;;
14377;SDS011;7272;53.668;9.578;2023-04-22T00:11:20;3.97;;;3.40;;
14377;SDS011;7272;53.668;9.578;2023-04-22T00:14:21;5.60;;;3.50;;
14377;SDS011;7272;53.668;9.578;2023-04-22T00:17:23;3.80;;;3.47;;
14377;SDS011;7272;53.668;9.578;2023-04-22T00:20:24;3.23;;;2.93;;
14377;SDS011;7272;53.668;9.578;2023-04-22T00:23:26;4.73;;;3.23;;
14377;SDS011;7272;53.668;9.578;2023-04-22T00:26:27;3.70;;;3.40;;
14377;SDS011;7272;53.668;9.578;2023-04-22T00:29:28;3.83;;;3.53;;
14377;SDS011;7272;53.668;9.578;2023-04-22T00:32:29;4.45;;;4.05;;
14377;SDS011;7272;53.668;9.578;2023-04-22T00:35:31;3.07;;;2.87;;
14377;SDS011;7272;53.668;9.578;2023-04-22T00:38:33;3.50;;;3.20;;
14377;SDS011;7272;53.668;9.578;2023-04-22T00:41:34;3.53;;;3.23;;
14377;SDS011;7272;53.668;9.578;2023-04-22T00:44:35;4.87;;;3.60;;
14377;SDS011;7272;53.668;9.578;2023-04-22T00:47:37;4.03;;;3.37;;
14377;SDS011;7272;53.668;9.578;2023-04-22T00:50:38;4.77;;;3.37;;
14377;SDS011;7272;53.668;9.578;2023-04-22T00:53:40;3.57;;;3.27;;
14377;SDS011;7272;53.668;9.578;2023-04-22T00:56:41;3.87;;;3.57;;
14377;SDS011;7272;53.668;9.578;2023-04-22T00:59:43;4.97;;;3.60;;
14377;SDS011;7272;53.668;9.578;2023-04-22T01:02:44;3.20;;;3.00;;
14377;SDS011;7272;53.668;9.578;2023-04-22T01:05:46;3.90;;;3.50;;
14377;SDS011;7272;53.668;9.578;2023-04-22T01:08:49;4.00;;;3.70;;
14377;SDS011;7272;53.668;9.578;2023-04-22T01:11:51;4.22;;;3.83;;
14377;SDS011;7272;53.668;9.578;2023-04-22T01:14:52;4.10;;;3.70;;
14377;SDS011;7272;53.668;9.578;2023-04-22T01:17:53;5.20;;;3.30;;
14377;SDS011;7272;53.668;9.578;2023-04-22T01:20:55;4.23;;;3.50;;
14377;SDS011;7272;53.668;9.578;2023-04-22T01:23:57;3.80;;;3.40;;
14377;SDS011;7272;53.668;9.578;2023-04-22T01:26:59;4.33;;;3.20;;
14377;SDS011;7272;53.668;9.578;2023-04-22T01:30:01;3.07;;;2.70;;
14377;SDS011;7272;53.668;9.578;2023-04-22T01:33:03;3.80;;;3.30;;
14377;SDS011;7272;53.668;9.578;2023-04-22T01:36:05;3.60;;;3.20;;
14377;SDS011;7272;53.668;9.578;2023-04-22T01:39:07;4.30;;;3.13;;
14377;SDS011;7272;53.668;9.578;2023-04-22T01:42:08;3.20;;;3.00;;
14377;SDS011;7272;53.668;9.578;2023-04-22T01:45:10;4.87;;;3.40;;
14377;SDS011;7272;53.668;9.578;2023-04-22T01:48:12;4.32;;;3.92;;
14377;SDS011;7272;53.668;9.578;2023-04-22T01:51:13;4.00;;;3.70;;
14377;SDS011;7272;53.668;9.578;2023-04-22T01:54:18;4.20;;;3.80;;
14377;SDS011;7272;53.668;9.578;2023-04-22T01:57:20;3.50;;;3.20;;
14377;SDS011;7272;53.668;9.578;2023-04-22T02:00:21;3.00;;;2.80;;
14377;SDS011;7272;53.668;9.578;2023-04-22T02:03:22;3.60;;;3.30;;
14377;SDS011;7272;53.668;9.578;2023-04-22T02:06:23;4.07;;;3.77;;
14377;SDS011;7272;53.668;9.578;2023-04-22T02:09:25;5.23;;;3.50;;
14377;SDS011;7272;53.668;9.578;2023-04-22T02:12:27;3.97;;;3.57;;
14377;SDS011;7272;53.668;9.578;2023-04-22T02:15:28;4.07;;;3.67;;
14377;SDS011;7272;53.668;9.578;2023-04-22T02:18:29;4.00;;;3.40;;
14377;SDS011;7272;53.668;9.578;2023-04-22T02:21:30;3.50;;;3.20;;
14377;SDS011;7272;53.668;9.578;2023-04-22T02:24:32;4.50;;;4.10;;
14377;SDS011;7272;53.668;9.578;2023-04-22T02:27:34;4.23;;;3.83;;
14377;SDS011;7272;53.668;9.578;2023-04-22T02:30:35;4.37;;;3.60;;
14377;SDS011;7272;53.668;9.578;2023-04-22T02:33:36;4.10;;;3.50;;
14377;SDS011;7272;53.668;9.578;2023-04-22T02:36:41;4.03;;;3.50;;
14377;SDS011;7272;53.668;9.578;2023-04-22T02:39:44;5.77;;;3.87;;
14377;SDS011;7272;53.668;9.578;2023-04-22T02:42:45;4.70;;;4.17;;
14377;SDS011;7272;53.668;9.578;2023-04-22T02:45:47;4.63;;;3.73;;
14377;SDS011;7272;53.668;9.578;2023-04-22T02:48:49;3.90;;;3.60;;
14377;SDS011;7272;53.668;9.578;2023-04-22T02:51:50;4.10;;;3.70;;
14377;SDS011;7272;53.668;9.578;2023-04-22T02:54:52;4.43;;;4.03;;
14377;SDS011;7272;53.668;9.578;2023-04-22T02:57:53;4.90;;;4.50;;
14377;SDS011;7272;53.668;9.578;2023-04-22T03:00:54;5.18;;;4.72;;
14377;SDS011;7272;53.668;9.578;2023-04-22T03:03:57;4.53;;;4.13;;
14377;SDS011;7272;53.668;9.578;2023-04-22T03:06:58;4.77;;;4.37;;
14377;SDS011;7272;53.668;9.578;2023-04-22T03:10:00;4.40;;;4.10;;
14377;SDS011;7272;53.668;9.578;2023-04-22T03:13:02;4.37;;;3.93;;
14377;SDS011;7272;53.668;9.578;2023-04-22T03:16:03;4.23;;;3.93;;
14377;SDS011;7272;53.668;9.578;2023-04-22T03:19:05;5.00;;;4.53;;
14377;SDS011;7272;53.668;9.578;2023-04-22T03:22:06;6.23;;;4.67;;
14377;SDS011;7272;53.668;9.578;2023-04-22T03:25:09;5.63;;;4.93;;
14377;SDS011;7272;53.668;9.578;2023-04-22T03:28:11;4.90;;;4.50;;
14377;SDS011;7272;53.668;9.578;2023-04-22T03:31:13;5.07;;;4.37;;
14377;SDS011;7272;53.668;9.578;2023-04-22T03:34:15;5.30;;;4.80;;
14377;SDS011;7272;53.668;9.578;2023-04-22T03:37:18;6.13;;;5.53;;
14377;SDS011;7272;53.668;9.578;2023-04-22T03:40:21;5.60;;;5.20;;
14377;SDS011;7272;53.668;9.578;2023-04-22T03:43:23;6.07;;;4.80;;
14377;SDS011;7272;53.668;9.578;2023-04-22T03:46:33;5.83;;;5.10;;
14377;SDS011;7272;53.668;9.578;2023-04-22T03:49:45;5.53;;;5.07;;
14377;SDS011;7272;53.668;9.578;2023-04-22T03:52:46;6.00;;;5.50;;
14377;SDS011;7272;53.668;9.578;2023-04-22T03:55:52;5.80;;;5.20;;
14377;SDS011;7272;53.668;9.578;2023-04-22T03:58:53;5.70;;;5.13;;
14377;SDS011;7272;53.668;9.578;2023-04-22T04:01:55;5.67;;;5.10;;
14377;SDS011;7272;53.668;9.578;2023-04-22T04:04:59;5.83;;;5.03;;
14377;SDS011;7272;53.668;9.578;2023-04-22T04:08:01;6.53;;;5.93;;
14377;SDS011;7272;53.668;9.578;2023-04-22T04:11:03;5.70;;;5.20;;
14377;SDS011;7272;53.668;9.578;2023-04-22T04:14:05;5.83;;;5.03;;
14377;SDS011;7272;53.668;9.578;2023-04-22T04:17:15;6.33;;;5.87;;
14377;SDS011;7272;53.668;9.578;2023-04-22T04:20:17;6.68;;;6.13;;
14377;SDS011;7272;53.668;9.578;2023-04-22T04:23:19;5.63;;;5.17;;
14377;SDS011;7272;53.668;9.578;2023-04-22T04:26:21;6.63;;;5.67;;
14377;SDS011;7272;53.668;9.578;2023-04-22T04:29:27;6.17;;;5.30;;
14377;SDS011;7272;53.668;9.578;2023-04-22T04:32:41;5.37;;;4.97;;
14377;SDS011;7272;53.668;9.578;2023-04-22T04:35:46;5.80;;;5.20;;
14377;SDS011;7272;53.668;9.578;2023-04-22T04:38:51;6.40;;;5.77;;
14377;SDS011;7272;53.668;9.578;2023-04-22T04:41:54;5.73;;;5.20;;
14377;SDS011;7272;53.668;9.578;2023-04-22T04:44:58;6.37;;;5.57;;
14377;SDS011;7272;53.668;9.578;2023-04-22T04:48:00;6.27;;;5.77;;
14377;SDS011;7272;53.668;9.578;2023-04-22T04:51:08;6.23;;;5.73;;
14377;SDS011;7272;53.668;9.578;2023-04-22T04:54:16;6.83;;;6.23;;
14377;SDS011;7272;53.668;9.578;2023-04-22T04:57:18;6.73;;;5.97;;
14377;SDS011;7272;53.668;9.578;2023-04-22T05:00:20;6.40;;;5.83;;
14377;SDS011;7272;53.668;9.578;2023-04-22T05:03:22;7.07;;;6.50;;
14377;SDS011;7272;53.668;9.578;2023-04-22T05:06:23;6.60;;;6.00;;
14377;SDS011;7272;53.668;9.578;2023-04-22T05:09:31;6.57;;;6.07;;
14377;SDS011;7272;53.668;9.578;2023-04-22T05:12:37;5.90;;;5.40;;
14377;SDS011;7272;53.668;9.578;2023-04-22T05:15:41;6.83;;;6.10;;
14377;SDS011;7272;53.668;9.578;2023-04-22T05:18:43;6.50;;;6.00;;
14377;SDS011;7272;53.668;9.578;2023-04-22T05:21:45;7.00;;;6.30;;
14377;SDS011;7272;53.668;9.578;2023-04-22T05:24:47;7.30;;;6.60;;
14377;SDS011;7272;53.668;9.578;2023-04-22T05:27:49;6.87;;;5.93;;
14377;SDS011;7272;53.668;9.578;2023-04-22T05:30:52;6.07;;;5.57;;
14377;SDS011;7272;53.668;9.578;2023-04-22T05:33:53;6.33;;;5.83;;
14377;SDS011;7272;53.668;9.578;2023-04-22T05:36:56;6.20;;;5.67;;
14377;SDS011;7272;53.668;9.578;2023-04-22T05:39:59;7.50;;;6.55;;
14377;SDS011;7272;53.668;9.578;2023-04-22T05:43:01;6.83;;;6.20;;
14377;SDS011;7272;53.668;9.578;2023-04-22T05:46:03;7.70;;;7.10;;
14377;SDS011;7272;53.668;9.578;2023-04-22T05:49:07;7.20;;;6.43;;
14377;SDS011;7272;53.668;9.578;2023-04-22T05:52:26;7.20;;;6.33;;
14377;SDS011;7272;53.668;9.578;2023-04-22T05:55:48;6.93;;;6.33;;
14377;SDS011;7272;53.668;9.578;2023-04-22T05:58:50;8.37;;;5.90;;
14377;SDS011;7272;53.668;9.578;2023-04-22T06:01:55;7.30;;;6.70;;
14377;SDS011;7272;53.668;9.578;2023-04-22T06:04:58;6.80;;;6.17;;
14377;SDS011;7272;53.668;9.578;2023-04-22T06:07:59;7.83;;;7.03;;
14377;SDS011;7272;53.668;9.578;2023-04-22T06:11:00;7.50;;;6.23;;
14377;SDS011;7272;53.668;9.578;2023-04-22T06:14:05;7.70;;;6.93;;
14377;SDS011;7272;53.668;9.578;2023-04-22T06:17:07;7.00;;;6.30;;
14377;SDS011;7272;53.668;9.578;2023-04-22T06:20:09;7.20;;;6.50;;
14377;SDS011;7272;53.668;9.578;2023-04-22T06:23:11;6.97;;;6.10;;
14377;SDS011;7272;53.668;9.578;2023-04-22T06:26:12;6.70;;;5.93;;
14377;SDS011;7272;53.668;9.578;2023-04-22T06:29:14;7.60;;;6.90;;
14377;SDS011;7272;53.668;9.578;2023-04-22T06:32:16;7.53;;;6.70;;
14377;SDS011;7272;53.668;9.578;2023-04-22T06:35:17;7.30;;;6.70;;
14377;SDS011;7272;53.668;9.578;2023-04-22T06:38:18;7.50;;;6.50;;
14377;SDS011;7272;53.668;9.578;2023-04-22T06:41:39;6.67;;;6.10;;
14377;SDS011;7272;53.668;9.578;2023-04-22T06:45:02;7.63;;;6.20;;
14377;SDS011;7272;53.668;9.578;2023-04-22T06:48:15;7.97;;;6.60;;
14377;SDS011;7272;53.668;9.578;2023-04-22T06:51:36;8.23;;;6.40;;
14377;SDS011;7272;53.668;9.578;2023-04-22T06:54:37;7.33;;;6.73;;
14377;SDS011;7272;53.668;9.578;2023-04-22T06:57:39;8.23;;;6.70;;
14377;SDS011;7272;53.668;9.578;2023-04-22T07:00:40;9.20;;;6.63;;
14377;SDS011;7272;53.668;9.578;2023-04-22T07:03:42;7.40;;;6.70;;
14377;SDS011;7272;53.668;9.578;2023-04-22T07:06:47;7.70;;;7.00;;
14377;SDS011;7272;53.668;9.578;2023-04-22T07:09:49;7.55;;;6.85;;
14377;SDS011;7272;53.668;9.578;2023-04-22T07:12:50;6.60;;;6.03;;
14377;SDS011;7272;53.668;9.578;2023-04-22T07:15:52;6.90;;;6.20;;
14377;SDS011;7272;53.668;9.578;2023-04-22T07:18:53;8.70;;;6.13;;
14377;SDS011;7272;53.668;9.578;2023-04-22T07:21:55;6.43;;;5.90;;
14377;SDS011;7272;53.668;9.578;2023-04-22T07:24:56;6.87;;;6.27;;
14377;SDS011;7272;53.668;9.578;2023-04-22T07:27:57;7.07;;;6.47;;
14377;SDS011;7272;53.668;9.578;2023-04-22T07:30:59;8.57;;;6.73;;
14377;SDS011;7272;53.668;9.578;2023-04-22T07:34:01;6.33;;;5.73;;
14377;SDS011;7272;53.668;9.578;2023-04-22T07:37:02;6.80;;;6.20;;
14377;SDS011;7272;53.668;9.578;2023-04-22T07:40:06;6.50;;;6.00;;
14377;SDS011;7272;53.668;9.578;2023-04-22T07:43:10;6.77;;;6.23;;
14377;SDS011;7272;53.668;9.578;2023-04-22T07:46:12;7.23;;;6.63;;
14377;SDS011;7272;53.668;9.578;2023-04-22T07:49:14;7.07;;;6.50;;
14377;SDS011;7272;53.668;9.578;2023-04-22T07:52:16;6.70;;;6.10;;
14377;SDS011;7272;53.668;9.578;2023-04-22T07:55:18;5.93;;;5.43;;
14377;SDS011;7272;53.668;9.578;2023-04-22T07:58:20;6.70;;;6.10;;
14377;SDS011;7272;53.668;9.578;2023-04-22T08:01:22;6.60;;;6.00;;
14377;SDS011;7272;53.668;9.578;2023-04-22T08:04:23;5.87;;;5.43;;
14377;SDS011;7272;53.668;9.578;2023-04-22T08:07:24;5.73;;;5.33;;
14377;SDS011;7272;53.668;9.578;2023-04-22T08:10:25;5.73;;;5.33;;
14377;SDS011;7272;53.668;9.578;2023-04-22T08:13:26;6.33;;;5.83;;
14377;SDS011;7272;53.668;9.578;2023-04-22T08:16:28;6.20;;;5.60;;
14377;SDS011;7272;53.668;9.578;2023-04-22T08:19:29;6.10;;;5.60;;
14377;SDS011;7272;53.668;9.578;2023-04-22T08:22:31;6.60;;;6.03;;
14377;SDS011;7272;53.668;9.578;2023-04-22T08:25:33;6.07;;;5.47;;
14377;SDS011;7272;53.668;9.578;2023-04-22T08:28:34;6.17;;;5.67;;
14377;SDS011;7272;53.668;9.578;2023-04-22T08:31:36;6.95;;;6.35;;
14377;SDS011;7272;53.668;9.578;2023-04-22T08:34:37;6.30;;;5.80;;
14377;SDS011;7272;53.668;9.578;2023-04-22T08:37:39;5.20;;;4.70;;
14377;SDS011;7272;53.668;9.578;2023-04-22T08:40:40;6.23;;;5.63;;
14377;SDS011;7272;53.668;9.578;2023-04-22T08:43:42;5.97;;;4.70;;
14377;SDS011;7272;53.668;9.578;2023-04-22T08:46:45;6.00;;;5.50;;
14377;SDS011;7272;53.668;9.578;2023-04-22T08:49:48;7.23;;;5.63;;
14377;SDS011;7272;53.668;9.578;2023-04-22T08:52:51;5.57;;;4.87;;
14377;SDS011;7272;53.668;9.578;2023-04-22T08:55:52;5.93;;;5.53;;
14377;SDS011;7272;53.668;9.578;2023-04-22T08:58:56;5.60;;;5.10;;
14377;SDS011;7272;53.668;9.578;2023-04-22T09:01:58;6.03;;;5.27;;
14377;SDS011;7272;53.668;9.578;2023-04-22T09:05:00;6.60;;;6.00;;
14377;SDS011;7272;53.668;9.578;2023-04-22T09:08:02;5.90;;;5.40;;
14377;SDS011;7272;53.668;9.578;2023-04-22T09:11:03;5.60;;;5.10;;
14377;SDS011;7272;53.668;9.578;2023-04-22T09:14:05;5.43;;;4.97;;
14377;SDS011;7272;53.668;9.578;2023-04-22T09:17:06;5.50;;;5.00;;
14377;SDS011;7272;53.668;9.578;2023-04-22T09:20:08;6.57;;;5.50;;
14377;SDS011;7272;53.668;9.578;2023-04-22T09:23:11;5.57;;;5.07;;
14377;SDS011;7272;53.668;9.578;2023-04-22T09:26:13;5.30;;;4.90;;
14377;SDS011;7272;53.668;9.578;2023-04-22T09:29:15;5.90;;;5.40;;
14377;SDS011;7272;53.668;9.578;2023-04-22T09:32:17;5.73;;;5.23;;
14377;SDS011;7272;53.668;9.578;2023-04-22T09:35:23;5.60;;;5.10;;
14377;SDS011;7272;53.668;9.578;2023-04-22T09:38:29;5.97;;;5.43;;
14377;SDS011;7272;53.668;9.578;2023-04-22T09:41:31;6.40;;;5.70;;
14377;SDS011;7272;53.668;9.578;2023-04-22T09:44:34;5.70;;;5.20;;
14377;SDS011;7272;53.668;9.578;2023-04-22T09:47:36;5.73;;;5.23;;
14377;SDS011;7272;53.668;9.578;2023-04-22T09:50:37;6.27;;;5.67;;
14377;SDS011;7272;53.668;9.578;2023-04-22T09:53:40;6.27;;;5.63;;
14377;SDS011;7272;53.668;9.578;2023-04-22T09:56:42;5.67;;;4.93;;
14377;SDS011;7272;53.668;9.578;2023-04-22T09:59:46;6.03;;;5.53;;
14377;SDS011;7272;53.668;9.578;2023-04-22T10:02:50;5.30;;;4.90;;
14377;SDS011;7272;53.668;9.578;2023-04-22T10:05:51;5.53;;;5.03;;
14377;SDS011;7272;53.668;9.578;2023-04-22T10:08:52;5.00;;;4.60;;
14377;SDS011;7272;53.668;9.578;2023-04-22T10:11:55;5.87;;;4.50;;
14377;SDS011;7272;53.668;9.578;2023-04-22T10:14:57;5.50;;;5.00;;
14377;SDS011;7272;53.668;9.578;2023-04-22T10:17:59;4.77;;;4.37;;
14377;SDS011;7272;53.668;9.578;2023-04-22T10:21:02;5.57;;;4.83;;
14377;SDS011;7272;53.668;9.578;2023-04-22T10:24:04;5.07;;;4.57;;
14377;SDS011;7272;53.668;9.578;2023-04-22T10:27:06;5.27;;;4.67;;
14377;SDS011;7272;53.668;9.578;2023-04-22T10:30:10;4.60;;;4.13;;
14377;SDS011;7272;53.668;9.578;2023-04-22T10:33:37;4.63;;;3.97;;
14377;SDS011;7272;53.668;9.578;2023-04-22T10:36:51;4.53;;;4.13;;
14377;SDS011;7272;53.668;9.578;2023-04-22T10:40:04;5.10;;;4.30;;
14377;SDS011;7272;53.668;9.578;2023-04-22T10:43:07;4.47;;;4.13;;
14377;SDS011;7272;53.668;9.578;2023-04-22T10:56:39;4.28;;;3.90;;
14377;SDS011;7272;53.668;9.578;2023-04-22T11:00:10;5.70;;;3.90;;
14377;SDS011;7272;53.668;9.578;2023-04-22T11:03:27;4.03;;;3.63;;
14377;SDS011;7272;53.668;9.578;2023-04-22T11:06:30;4.40;;;4.00;;
14377;SDS011;7272;53.668;9.578;2023-04-22T11:09:31;4.77;;;4.17;;
14377;SDS011;7272;53.668;9.578;2023-04-22T11:12:42;3.75;;;3.45;;
14377;SDS011;7272;53.668;9.578;2023-04-22T11:15:44;4.18;;;3.88;;
14377;SDS011;7272;53.668;9.578;2023-04-22T11:18:47;3.92;;;3.53;;
14377;SDS011;7272;53.668;9.578;2023-04-22T11:21:49;4.03;;;3.72;;
14377;SDS011;7272;53.668;9.578;2023-04-22T11:24:53;4.30;;;4.00;;
14377;SDS011;7272;53.668;9.578;2023-04-22T11:27:55;5.32;;;4.55;;
14377;SDS011;7272;53.668;9.578;2023-04-22T11:31:00;4.00;;;3.70;;
14377;SDS011;7272;53.668;9.578;2023-04-22T11:34:02;4.65;;;3.80;;
14377;SDS011;7272;53.668;9.578;2023-04-22T11:37:04;5.53;;;4.00;;
14377;SDS011;7272;53.668;9.578;2023-04-22T11:40:05;4.10;;;3.70;;
14377;SDS011;7272;53.668;9.578;2023-04-22T11:43:08;4.05;;;3.72;;
14377;SDS011;7272;53.668;9.578;2023-04-22T11:46:09;5.13;;;4.00;;
14377;SDS011;7272;53.668;9.578;2023-04-22T11:49:11;4.03;;;3.70;;
14377;SDS011;7272;53.668;9.578;2023-04-22T11:52:14;4.00;;;3.70;;
14377;SDS011;7272;53.668;9.578;2023-04-22T11:55:16;4.10;;;3.80;;
14377;SDS011;7272;53.668;9.578;2023-04-22T11:58:23;4.65;;;3.70;;
14377;SDS011;7272;53.668;9.578;2023-04-22T12:01:28;4.03;;;3.70;;
14377;SDS011;7272;53.668;9.578;2023-04-22T12:04:33;4.10;;;3.75;;
14377;SDS011;7272;53.668;9.578;2023-04-22T12:07:36;4.00;;;3.20;;
14377;SDS011;7272;53.668;9.578;2023-04-22T12:10:39;3.17;;;2.92;;
14377;SDS011;7272;53.668;9.578;2023-04-22T12:13:42;3.63;;;3.33;;
14377;SDS011;7272;53.668;9.578;2023-04-22T12:16:45;2.63;;;2.40;;
14377;SDS011;7272;53.668;9.578;2023-04-22T12:19:46;3.20;;;2.90;;
14377;SDS011;7272;53.668;9.578;2023-04-22T12:22:48;3.28;;;2.50;;
14377;SDS011;7272;53.668;9.578;2023-04-22T12:25:52;2.13;;;2.03;;
14377;SDS011;7272;53.668;9.578;2023-04-22T12:28:54;2.50;;;2.30;;
14377;SDS011;7272;53.668;9.578;2023-04-22T12:31:57;2.70;;;2.40;;
14377;SDS011;7272;53.668;9.578;2023-04-22T12:34:58;2.47;;;2.10;;
14377;SDS011;7272;53.668;9.578;2023-04-22T12:38:00;3.08;;;2.38;;
14377;SDS011;7272;53.668;9.578;2023-04-22T12:41:02;2.22;;;2.08;;
14377;SDS011;7272;53.668;9.578;2023-04-22T12:44:04;2.40;;;2.25;;
14377;SDS011;7272;53.668;9.578;2023-04-22T12:47:05;2.40;;;2.20;;
14377;SDS011;7272;53.668;9.578;2023-04-22T12:50:07;3.70;;;2.55;;
14377;SDS011;7272;53.668;9.578;2023-04-22T12:53:09;2.05;;;1.95;;
14377;SDS011;7272;53.668;9.578;2023-04-22T12:56:10;5.13;;;2.50;;
14377;SDS011;7272;53.668;9.578;2023-04-22T12:59:12;2.50;;;2.00;;
14377;SDS011;7272;53.668;9.578;2023-04-22T13:02:13;1.83;;;1.63;;
14377;SDS011;7272;53.668;9.578;2023-04-22T13:05:14;1.92;;;1.75;;
14377;SDS011;7272;53.668;9.578;2023-04-22T13:08:17;2.38;;;2.00;;
14377;SDS011;7272;53.668;9.578;2023-04-22T13:11:18;2.20;;;2.00;;
14377;SDS011;7272;53.668;9.578;2023-04-22T13:14:20;2.85;;;2.15;;
14377;SDS011;7272;53.668;9.578;2023-04-22T13:17:21;1.90;;;1.80;;
14377;SDS011;7272;53.668;9.578;2023-04-22T13:20:23;1.88;;;1.60;;
14377;SDS011;7272;53.668;9.578;2023-04-22T13:23:25;2.22;;;2.03;;
14377;SDS011;7272;53.668;9.578;2023-04-22T13:26:26;7.00;;;4.20;;
14377;SDS011;7272;53.668;9.578;2023-04-22T13:29:28;3.88;;;2.10;;
14377;SDS011;7272;53.668;9.578;2023-04-22T13:32:29;3.10;;;2.10;;
14377;SDS011;7272;53.668;9.578;2023-04-22T13:35:30;18.10;;;7.65;;
14377;SDS011;7272;53.668;9.578;2023-04-22T13:38:32;2.40;;;2.10;;
14377;SDS011;7272;53.668;9.578;2023-04-22T13:41:34;2.03;;;1.92;;
14377;SDS011;7272;53.668;9.578;2023-04-22T13:44:35;1.90;;;1.80;;
14377;SDS011;7272;53.668;9.578;2023-04-22T13:47:36;2.00;;;1.90;;
14377;SDS011;7272;53.668;9.578;2023-04-22T13:50:38;2.80;;;1.98;;
14377;SDS011;7272;53.668;9.578;2023-04-22T13:53:42;2.15;;;2.00;;
14377;SDS011;7272;53.668;9.578;2023-04-22T13:56:44;2.15;;;1.88;;
14377;SDS011;7272;53.668;9.578;2023-04-22T13:59:45;2.42;;;2.10;;
14377;SDS011;7272;53.668;9.578;2023-04-22T14:02:46;2.35;;;2.03;;
14377;SDS011;7272;53.668;9.578;2023-04-22T14:05:48;2.10;;;2.00;;
14377;SDS011;7272;53.668;9.578;2023-04-22T14:08:49;2.40;;;2.20;;
14377;SDS011;7272;53.668;9.578;2023-04-22T14:11:51;2.28;;;2.10;;
14377;SDS011;7272;53.668;9.578;2023-04-22T14:14:52;2.38;;;2.22;;
14377;SDS011;7272;53.668;9.578;2023-04-22T14:17:53;2.10;;;2.00;;
14377;SDS011;7272;53.668;9.578;2023-04-22T14:20:54;1.80;;;1.70;;
14377;SDS011;7272;53.668;9.578;2023-04-22T14:23:56;2.35;;;2.15;;
14377;SDS011;7272;53.668;9.578;2023-04-22T14:26:58;3.40;;;2.25;;
14377;SDS011;7272;53.668;9.578;2023-04-22T14:30:00;3.20;;;2.53;;
14377;SDS011;7272;53.668;9.578;2023-04-22T14:33:03;2.20;;;2.00;;
14377;SDS011;7272;53.668;9.578;2023-04-22T14:36:06;2.40;;;2.20;;
14377;SDS011;7272;53.668;9.578;2023-04-22T14:39:08;2.40;;;2.20;;
14377;SDS011;7272;53.668;9.578;2023-04-22T14:42:09;2.58;;;2.08;;
14377;SDS011;7272;53.668;9.578;2023-04-22T14:45:10;2.40;;;2.20;;
14377;SDS011;7272;53.668;9.578;2023-04-22T14:48:13;2.63;;;2.42;;
14377;SDS011;7272;53.668;9.578;2023-04-22T14:51:15;3.10;;;2.27;;
14377;SDS011;7272;53.668;9.578;2023-04-22T14:54:17;3.22;;;2.25;;
14377;SDS011;7272;53.668;9.578;2023-04-22T14:57:18;2.25;;;2.05;;
14377;SDS011;7272;53.668;9.578;2023-04-22T15:00:19;2.00;;;1.90;;
14377;SDS011;7272;53.668;9.578;2023-04-22T15:03:21;2.90;;;2.60;;
14377;SDS011;7272;53.668;9.578;2023-04-22T15:06:22;2.60;;;2.40;;
14377;SDS011;7272;53.668;9.578;2023-04-22T15:09:24;3.15;;;2.17;;
14377;SDS011;7272;53.668;9.578;2023-04-22T15:12:26;3.40;;;2.00;;
14377;SDS011;7272;53.668;9.578;2023-04-22T15:15:28;2.25;;;2.10;;
14377;SDS011;7272;53.668;9.578;2023-04-22T15:18:29;3.42;;;2.60;;
14377;SDS011;7272;53.668;9.578;2023-04-22T15:21:30;2.00;;;1.90;;
14377;SDS011;7272;53.668;9.578;2023-04-22T15:24:33;2.78;;;2.47;;
14377;SDS011;7272;53.668;9.578;2023-04-22T15:27:34;3.00;;;2.20;;
14377;SDS011;7272;53.668;9.578;2023-04-22T15:30:36;3.03;;;2.72;;
14377;SDS011;7272;53.668;9.578;2023-04-22T15:33:39;2.47;;;2.25;;
14377;SDS011;7272;53.668;9.578;2023-04-22T15:36:41;2.30;;;2.20;;
14377;SDS011;7272;53.668;9.578;2023-04-22T15:39:43;3.07;;;2.40;;
14377;SDS011;7272;53.668;9.578;2023-04-22T15:42:44;2.88;;;2.60;;
14377;SDS011;7272;53.668;9.578;2023-04-22T15:45:45;3.00;;;2.80;;
14377;SDS011;7272;53.668;9.578;2023-04-22T15:48:46;3.08;;;2.33;;
14377;SDS011;7272;53.668;9.578;2023-04-22T15:51:48;2.63;;;2.42;;
14377;SDS011;7272;53.668;9.578;2023-04-22T15:54:50;2.57;;;2.37;;
14377;SDS011;7272;53.668;9.578;2023-04-22T15:57:51;3.13;;;2.83;;
14377;SDS011;7272;53.668;9.578;2023-04-22T16:00:53;3.03;;;2.63;;
14377;SDS011;7272;53.668;9.578;2023-04-22T16:03:54;2.80;;;2.60;;
14377;SDS011;7272;53.668;9.578;2023-04-22T16:06:55;3.83;;;2.70;;
14377;SDS011;7272;53.668;9.578;2023-04-22T16:09:59;3.17;;;2.10;;
14377;SDS011;7272;53.668;9.578;2023-04-22T16:13:00;2.70;;;2.13;;
14377;SDS011;7272;53.668;9.578;2023-04-22T16:16:01;2.20;;;2.10;;
14377;SDS011;7272;53.668;9.578;2023-04-22T16:19:02;2.57;;;2.23;;
14377;SDS011;7272;53.668;9.578;2023-04-22T16:22:04;2.90;;;2.47;;
14377;SDS011;7272;53.668;9.578;2023-04-22T16:25:07;2.63;;;2.43;;
14377;SDS011;7272;53.668;9.578;2023-04-22T16:28:09;3.17;;;2.60;;
14377;SDS011;7272;53.668;9.578;2023-04-22T16:31:10;2.55;;;2.30;;
14377;SDS011;7272;53.668;9.578;2023-04-22T16:34:11;2.57;;;2.37;;
14377;SDS011;7272;53.668;9.578;2023-04-22T16:37:13;2.63;;;2.42;;
14377;SDS011;7272;53.668;9.578;2023-04-22T16:40:15;2.10;;;2.00;;
14377;SDS011;7272;53.668;9.578;2023-04-22T16:43:23;4.10;;;2.10;;
14377;SDS011;7272;53.668;9.578;2023-04-22T16:46:24;2.40;;;2.13;;
14377;SDS011;7272;53.668;9.578;2023-04-22T16:49:25;2.57;;;2.20;;
14377;SDS011;7272;53.668;9.578;2023-04-22T16:52:27;2.10;;;2.00;;
14377;SDS011;7272;53.668;9.578;2023-04-22T16:55:29;2.37;;;2.17;;
14377;SDS011;7272;53.668;9.578;2023-04-22T16:58:30;3.05;;;2.40;;
14377;SDS011;7272;53.668;9.578;2023-04-22T17:01:31;2.50;;;2.30;;
14377;SDS011;7272;53.668;9.578;2023-04-22T17:04:32;2.83;;;2.50;;
14377;SDS011;7272;53.668;9.578;2023-04-22T17:07:34;2.93;;;2.37;;
14377;SDS011;7272;53.668;9.578;2023-04-22T17:10:36;2.83;;;2.33;;
14377;SDS011;7272;53.668;9.578;2023-04-22T17:13:40;2.90;;;2.30;;
14377;SDS011;7272;53.668;9.578;2023-04-22T17:16:41;2.80;;;2.20;;
14377;SDS011;7272;53.668;9.578;2023-04-22T17:19:43;2.33;;;2.03;;
14377;SDS011;7272;53.668;9.578;2023-04-22T17:22:44;2.60;;;2.40;;
14377;SDS011;7272;53.668;9.578;2023-04-22T17:25:46;2.30;;;2.10;;
14377;SDS011;7272;53.668;9.578;2023-04-22T17:28:47;2.47;;;2.23;;
14377;SDS011;7272;53.668;9.578;2023-04-22T17:31:49;2.30;;;1.97;;
14377;SDS011;7272;53.668;9.578;2023-04-22T17:34:50;2.37;;;2.17;;
14377;SDS011;7272;53.668;9.578;2023-04-22T17:37:52;2.53;;;2.33;;
14377;SDS011;7272;53.668;9.578;2023-04-22T17:40:54;2.30;;;2.20;;
14377;SDS011;7272;53.668;9.578;2023-04-22T17:43:55;2.85;;;2.50;;
14377;SDS011;7272;53.668;9.578;2023-04-22T17:46:57;2.50;;;2.30;;
14377;SDS011;7272;53.668;9.578;2023-04-22T17:49:58;2.70;;;2.13;;
14377;SDS011;7272;53.668;9.578;2023-04-22T17:52:59;7.63;;;2.50;;
14377;SDS011;7272;53.668;9.578;2023-04-22T17:56:01;2.73;;;2.20;;
14377;SDS011;7272;53.668;9.578;2023-04-22T17:59:02;3.05;;;2.50;;
14377;SDS011;7272;53.668;9.578;2023-04-22T18:02:03;2.43;;;2.30;;
14377;SDS011;7272;53.668;9.578;2023-04-22T18:05:05;2.93;;;2.40;;
14377;SDS011;7272;53.668;9.578;2023-04-22T18:08:07;6.40;;;2.70;;
14377;SDS011;7272;53.668;9.578;2023-04-22T18:11:10;3.23;;;2.70;;
14377;SDS011;7272;53.668;9.578;2023-04-22T18:14:11;3.13;;;2.90;;
14377;SDS011;7272;53.668;9.578;2023-04-22T18:17:13;3.23;;;2.80;;
14377;SDS011;7272;53.668;9.578;2023-04-22T18:20:19;3.70;;;3.40;;
14377;SDS011;7272;53.668;9.578;2023-04-22T18:23:20;3.20;;;2.90;;
14377;SDS011;7272;53.668;9.578;2023-04-22T18:26:22;3.23;;;2.77;;
14377;SDS011;7272;53.668;9.578;2023-04-22T18:29:23;3.13;;;2.43;;
14377;SDS011;7272;53.668;9.578;2023-04-22T18:32:25;3.90;;;2.97;;
14377;SDS011;7272;53.668;9.578;2023-04-22T18:35:26;4.57;;;2.90;;
14377;SDS011;7272;53.668;9.578;2023-04-22T18:38:27;4.90;;;2.90;;
14377;SDS011;7272;53.668;9.578;2023-04-22T18:41:29;3.50;;;3.20;;
14377;SDS011;7272;53.668;9.578;2023-04-22T18:44:30;2.77;;;2.57;;
14377;SDS011;7272;53.668;9.578;2023-04-22T18:47:32;3.27;;;2.80;;